Time;durP1;ratioP1;P1;durP2;ratioP2;P2;SDS_P1;SDS_P2;PMS_P1;PMS_P2;Temp;Humidity;BMP_temperature;BMP_pressure;BME280_temperature;BME280_humidity;BME280_pressure;Samples;Min_cycle;Max_cycle;Signal;HPM_P1;HPM_P2
2022/02/15 00:00:28;;;;;;;2.90;2.10;;;7.30;99.90;;;;;;5027914;28;20076;-42
2022/02/15 00:02:54;;;;;;;3.13;2.30;;;7.30;99.90;;;;;;5028306;28;20029;-41
2022/02/15 00:05:23;;;;;;;3.85;2.50;;;7.30;99.90;;;;;;5027726;28;20052;-43
2022/02/15 00:07:49;;;;;;;2.63;2.42;;;7.30;99.90;;;;;;5028699;28;20108;-41
2022/02/15 00:10:14;;;;;;;3.67;2.33;;;7.30;99.90;;;;;;5027533;28;20491;-42
2022/02/15 00:12:40;;;;;;;3.05;2.38;;;7.30;99.90;;;;;;5028780;28;20034;-43
2022/02/15 00:15:07;;;;;;;7.25;3.50;;;7.40;99.90;;;;;;5027475;28;20042;-43
2022/02/15 00:17:37;;;;;;;3.80;3.05;;;7.30;99.90;;;;;;5028292;28;20032;-43
2022/02/15 00:20:04;;;;;;;4.90;3.05;;;7.30;99.90;;;;;;5028159;28;20045;-43
2022/02/15 00:22:30;;;;;;;4.07;3.28;;;7.30;99.90;;;;;;5027528;28;20575;-42
2022/02/15 00:24:56;;;;;;;5.47;3.30;;;7.40;99.90;;;;;;5028267;28;20025;-43
2022/02/15 00:27:21;;;;;;;6.35;3.45;;;7.40;99.90;;;;;;5027885;28;20862;-42
2022/02/15 00:29:47;;;;;;;4.50;3.30;;;7.40;99.90;;;;;;5027768;28;20064;-43
2022/02/15 00:32:12;;;;;;;5.47;3.15;;;7.50;99.90;;;;;;5028121;28;20064;-44
2022/02/15 00:34:38;;;;;;;6.47;3.75;;;7.50;99.90;;;;;;5027655;28;20372;-42
2022/02/15 00:37:03;;;;;;;4.25;3.10;;;7.50;99.90;;;;;;5027500;28;20116;-43
2022/02/15 00:39:29;;;;;;;4.72;3.00;;;7.50;99.90;;;;;;5027564;28;20033;-42
2022/02/15 00:41:55;;;;;;;6.40;3.38;;;7.50;99.90;;;;;;5028291;28;20999;-43
2022/02/15 00:44:20;;;;;;;4.95;3.10;;;7.50;99.90;;;;;;5027285;28;20026;-43
2022/02/15 00:46:46;;;;;;;4.80;3.40;;;7.50;99.90;;;;;;5027225;28;20025;-43
2022/02/15 00:49:12;;;;;;;4.30;3.15;;;7.50;99.90;;;;;;5027691;28;20525;-43
2022/02/15 00:51:37;;;;;;;4.07;3.15;;;7.50;99.90;;;;;;5027472;28;20100;-42
2022/02/15 00:54:04;;;;;;;6.22;3.85;;;7.50;99.90;;;;;;5027886;28;20784;-43
2022/02/15 00:56:29;;;;;;;5.82;3.50;;;7.50;99.90;;;;;;5026765;28;20072;-44
2022/02/15 00:58:56;;;;;;;7.10;3.42;;;7.50;99.90;;;;;;5027550;28;20060;-43
2022/02/15 01:01:21;;;;;;;3.95;3.28;;;7.60;99.90;;;;;;5027215;28;20033;-44
2022/02/15 01:03:47;;;;;;;6.72;3.20;;;7.60;99.90;;;;;;5027642;28;20033;-44
2022/02/15 01:06:13;;;;;;;6.18;3.15;;;7.60;99.90;;;;;;5026507;28;20103;-43
2022/02/15 01:08:39;;;;;;;4.07;3.05;;;7.60;99.90;;;;;;5027036;28;20048;-43
2022/02/15 01:11:05;;;;;;;4.90;3.70;;;7.60;99.90;;;;;;5027347;28;20049;-42
2022/02/15 01:13:31;;;;;;;8.40;4.53;;;7.60;99.90;;;;;;5026680;28;20064;-44
2022/02/15 01:15:56;;;;;;;8.82;4.88;;;7.60;99.90;;;;;;5026870;28;20551;-42
2022/02/15 01:18:26;;;;;;;7.93;5.10;;;7.50;99.90;;;;;;5026304;28;20025;-43
2022/02/15 01:20:52;;;;;;;6.45;4.18;;;7.50;99.90;;;;;;5027019;28;20057;-43
2022/02/15 01:23:17;;;;;;;9.73;5.07;;;7.50;99.90;;;;;;5027038;28;20483;-43
2022/02/15 01:25:43;;;;;;;7.05;4.20;;;7.50;99.90;;;;;;5027139;28;20025;-42
2022/02/15 01:28:08;;;;;;;8.57;4.88;;;7.40;99.90;;;;;;5026947;28;20025;-43
2022/02/15 01:30:34;;;;;;;6.32;4.72;;;7.40;99.90;;;;;;5027224;28;20462;-43
2022/02/15 01:32:59;;;;;;;7.07;4.78;;;7.40;99.90;;;;;;5026609;28;20025;-43
2022/02/15 01:35:25;;;;;;;6.85;4.15;;;7.40;99.90;;;;;;5026239;28;20042;-43
2022/02/15 01:37:50;;;;;;;4.85;3.78;;;7.40;99.90;;;;;;5026757;28;20029;-43
2022/02/15 01:40:16;;;;;;;8.45;4.72;;;7.40;99.90;;;;;;5026488;28;20384;-43
2022/02/15 01:42:42;;;;;;;7.22;4.40;;;7.40;99.90;;;;;;5026533;28;20029;-42
2022/02/15 01:45:12;;;;;;;8.45;4.95;;;7.40;99.90;;;;;;5027257;28;20487;-42
2022/02/15 01:47:38;;;;;;;8.38;4.72;;;7.40;99.90;;;;;;5025752;28;20033;-43
2022/02/15 01:50:04;;;;;;;5.38;4.10;;;7.40;99.90;;;;;;5026787;28;20112;-42
2022/02/15 01:52:30;;;;;;;7.13;4.13;;;7.40;99.90;;;;;;5026245;28;20030;-43
2022/02/15 01:54:59;;;;;;;5.60;4.00;;;7.40;99.90;;;;;;5026398;28;20040;-42
2022/02/15 01:57:25;;;;;;;5.47;4.10;;;7.40;99.90;;;;;;5025283;28;20029;-43
2022/02/15 01:59:55;;;;;;;7.38;4.53;;;7.40;99.90;;;;;;5026705;28;20049;-42
2022/02/15 02:02:22;;;;;;;9.02;4.65;;;7.40;99.90;;;;;;5025912;28;20021;-44
2022/02/15 02:07:32;;;;;;;7.43;4.40;;;7.40;99.90;;;;;;5025365;28;20087;-42
2022/02/15 02:09:57;;;;;;;4.80;3.90;;;7.40;99.90;;;;;;5026504;28;20025;-43
2022/02/15 02:12:23;;;;;;;8.93;4.70;;;7.40;99.90;;;;;;5025938;28;20021;-42
2022/02/15 02:15:20;;;;;;;7.05;4.90;;;7.40;99.90;;;;;;5025821;28;20041;-44
2022/02/15 02:17:46;;;;;;;9.68;4.97;;;7.40;99.90;;;;;;5003024;28;20041;-43
2022/02/15 02:20:13;;;;;;;7.22;4.88;;;7.40;99.90;;;;;;5025826;28;20025;-41
2022/02/15 02:22:39;;;;;;;7.75;4.55;;;7.40;99.90;;;;;;5026361;28;20029;-43
2022/02/15 02:25:05;;;;;;;6.20;4.13;;;7.40;99.90;;;;;;5025678;28;20017;-43
2022/02/15 02:27:33;;;;;;;5.65;4.10;;;7.40;99.90;;;;;;5025059;28;20088;-43
2022/02/15 02:29:59;;;;;;;5.22;4.45;;;7.40;99.90;;;;;;5025895;28;20056;-43
2022/02/15 02:32:27;;;;;;;6.90;3.80;;;7.30;99.90;;;;;;5024616;28;20037;-43
2022/02/15 02:34:54;;;;;;;5.13;3.13;;;7.40;99.90;;;;;;5024450;28;20378;-42
2022/02/15 02:37:20;;;;;;;7.53;3.40;;;7.30;99.90;;;;;;5024911;28;20029;-43
2022/02/15 02:39:48;;;;;;;4.40;3.50;;;7.30;99.90;;;;;;5025711;28;20029;-43
2022/02/15 02:42:17;;;;;;;8.98;4.28;;;7.30;99.90;;;;;;5025590;28;20033;-43
2022/02/15 02:44:42;;;;;;;5.63;3.92;;;7.30;99.90;;;;;;5025709;28;20108;-43
2022/02/15 02:47:08;;;;;;;9.38;3.95;;;7.30;99.90;;;;;;5025097;28;20112;-42
2022/02/15 02:49:34;;;;;;;5.65;3.40;;;7.20;99.90;;;;;;5025066;28;20041;-42
2022/02/15 02:52:00;;;;;;;7.38;3.92;;;7.20;99.90;;;;;;5025653;28;20068;-43
2022/02/15 02:54:26;;;;;;;6.00;3.63;;;7.20;99.90;;;;;;5024802;28;20045;-42
2022/02/15 02:56:53;;;;;;;4.07;3.10;;;7.10;99.90;;;;;;5025471;28;20040;-42
2022/02/15 02:59:18;;;;;;;4.50;3.55;;;7.10;99.90;;;;;;5025484;28;20033;-42
2022/02/15 03:01:44;;;;;;;5.40;3.15;;;7.00;99.90;;;;;;5025808;28;20493;-42
2022/02/15 03:04:10;;;;;;;5.82;3.10;;;7.00;99.90;;;;;;5024857;28;20404;-43
2022/02/15 03:06:35;;;;;;;5.40;3.00;;;7.10;99.90;;;;;;5024954;28;20050;-43
2022/02/15 03:09:01;;;;;;;4.85;2.70;;;7.10;99.90;;;;;;5025579;28;20035;-42
2022/02/15 03:11:26;;;;;;;8.13;3.08;;;7.10;99.90;;;;;;5028619;28;20030;-42
2022/02/15 03:13:52;;;;;;;4.32;2.60;;;7.10;99.90;;;;;;5029791;28;20033;-43
2022/02/15 03:16:17;;;;;;;5.07;2.42;;;7.10;99.90;;;;;;5028884;28;20131;-44
2022/02/15 03:18:43;;;;;;;5.65;2.50;;;7.10;99.90;;;;;;5029094;28;20029;-43
2022/02/15 03:21:08;;;;;;;3.10;2.05;;;7.10;99.90;;;;;;5028871;28;20060;-44
2022/02/15 03:23:34;;;;;;;5.75;2.63;;;7.10;99.90;;;;;;5029076;28;20113;-43
2022/02/15 03:25:59;;;;;;;3.65;2.35;;;7.10;99.90;;;;;;5028897;28;20188;-42
2022/02/15 03:28:25;;;;;;;6.00;2.45;;;7.10;99.90;;;;;;5029157;28;20469;-42
2022/02/15 03:30:51;;;;;;;2.80;1.90;;;7.10;99.90;;;;;;5029386;28;20400;-43
2022/02/15 03:33:17;;;;;;;2.53;1.98;;;7.10;99.90;;;;;;5028641;28;20029;-43
2022/02/15 03:35:42;;;;;;;5.38;1.90;;;7.10;99.90;;;;;;5029148;28;20042;-43
2022/02/15 03:38:08;;;;;;;4.75;2.20;;;7.10;99.90;;;;;;5028928;28;20044;-43
2022/02/15 03:43:18;;;;;;;2.90;1.88;;;7.20;99.90;;;;;;5028870;28;20028;-42
2022/02/15 03:45:43;;;;;;;3.80;1.95;;;7.20;99.90;;;;;;5028334;28;20396;-43
2022/02/15 03:48:09;;;;;;;5.45;2.10;;;7.20;99.90;;;;;;5028194;28;20037;-42
2022/02/15 03:50:34;;;;;;;4.63;2.08;;;7.20;99.90;;;;;;5028736;28;20079;-41
2022/02/15 03:53:00;;;;;;;2.67;1.85;;;7.10;99.90;;;;;;5029534;28;20037;-43
2022/02/15 03:55:26;;;;;;;2.90;2.13;;;7.10;99.90;;;;;;5028157;28;20112;-42
2022/02/15 03:57:52;;;;;;;3.50;2.50;;;7.10;99.90;;;;;;5028567;28;20021;-43
2022/02/15 04:00:17;;;;;;;2.72;2.15;;;7.10;99.90;;;;;;5028235;28;20047;-42
2022/02/15 04:02:43;;;;;;;3.35;2.50;;;7.10;99.90;;;;;;5028290;28;20404;-42
2022/02/15 04:05:09;;;;;;;2.33;2.13;;;7.10;99.90;;;;;;5028536;28;20196;-42
2022/02/15 04:07:34;;;;;;;3.80;2.28;;;7.10;99.90;;;;;;5027618;28;20037;-43
2022/02/15 04:10:00;;;;;;;2.42;2.10;;;7.10;99.90;;;;;;5028446;28;20033;-43
2022/02/15 04:12:25;;;;;;;5.05;3.13;;;7.10;99.90;;;;;;5028327;28;20022;-42
2022/02/15 04:14:51;;;;;;;3.10;2.63;;;7.10;99.90;;;;;;5028222;28;20052;-43
2022/02/15 04:17:16;;;;;;;6.03;3.20;;;7.10;99.90;;;;;;5028070;28;20456;-44
2022/02/15 04:19:42;;;;;;;4.22;2.30;;;7.10;99.90;;;;;;5029131;28;20033;-42
2022/02/15 04:22:08;;;;;;;3.88;2.80;;;7.10;99.90;;;;;;5026576;28;20595;-43
2022/02/15 04:24:34;;;;;;;5.53;2.95;;;7.10;99.90;;;;;;5028829;28;20037;-42
2022/02/15 04:26:59;;;;;;;4.95;2.88;;;7.10;99.90;;;;;;5029196;28;20105;-44
2022/02/15 04:29:26;;;;;;;4.90;3.20;;;7.10;99.90;;;;;;5027997;28;20389;-43
2022/02/15 04:31:52;;;;;;;4.22;3.22;;;7.10;99.90;;;;;;5029007;28;20350;-43
2022/02/15 04:34:17;;;;;;;4.38;3.13;;;7.10;99.90;;;;;;5028198;28;20037;-43
2022/02/15 04:36:43;;;;;;;4.60;3.15;;;7.20;99.90;;;;;;5028525;28;20021;-42
2022/02/15 04:39:09;;;;;;;4.88;3.83;;;7.10;99.90;;;;;;5024785;28;20053;-42
2022/02/15 04:41:34;;;;;;;6.15;3.50;;;7.20;99.90;;;;;;5028499;28;20461;-41
2022/02/15 04:44:00;;;;;;;6.80;3.50;;;7.20;99.90;;;;;;5027815;28;20071;-43
2022/02/15 04:46:25;;;;;;;6.05;3.53;;;7.10;99.90;;;;;;5027587;28;20500;-43
2022/02/15 04:48:51;;;;;;;4.43;3.28;;;7.20;99.90;;;;;;5028493;28;20030;-42
2022/02/15 04:51:17;;;;;;;5.55;3.88;;;7.20;99.90;;;;;;5027425;28;20025;-45
2022/02/15 04:53:42;;;;;;;6.72;4.10;;;7.20;99.90;;;;;;5027947;28;20026;-43
2022/02/15 04:56:07;;;;;;;5.25;3.63;;;7.20;99.90;;;;;;5027405;28;20049;-43
2022/02/15 04:58:33;;;;;;;6.88;4.05;;;7.20;99.90;;;;;;5026612;28;20029;-42
2022/02/15 05:00:59;;;;;;;6.90;4.63;;;7.20;99.90;;;;;;5027484;28;20029;-44
2022/02/15 05:03:24;;;;;;;4.22;3.33;;;7.20;99.90;;;;;;5026399;28;20060;-43
2022/02/15 05:05:50;;;;;;;5.95;4.28;;;7.20;99.90;;;;;;5027592;28;20053;-43
2022/02/15 05:08:15;;;;;;;6.78;4.50;;;7.20;99.90;;;;;;5026827;28;20056;-43
2022/02/15 05:10:41;;;;;;;7.35;4.85;;;7.20;99.90;;;;;;5026987;28;20030;-45
2022/02/15 05:13:08;;;;;;;6.50;4.50;;;7.20;99.90;;;;;;5027633;28;20017;-43
2022/02/15 05:15:35;;;;;;;10.55;6.10;;;7.30;99.90;;;;;;5027105;28;20037;-42
2022/02/15 05:18:05;;;;;;;9.63;6.43;;;7.30;99.90;;;;;;5026755;28;20025;-43
2022/02/15 05:20:31;;;;;;;11.45;6.85;;;7.20;99.90;;;;;;5026438;28;20021;-43
2022/02/15 05:22:56;;;;;;;12.65;7.10;;;7.20;99.90;;;;;;5027580;28;20026;-43
2022/02/15 05:25:22;;;;;;;10.23;6.72;;;7.20;99.90;;;;;;5026246;28;20034;-42
2022/02/15 05:27:47;;;;;;;11.07;6.85;;;7.30;99.90;;;;;;5027366;28;20025;-42
2022/02/15 05:30:13;;;;;;;8.55;6.60;;;7.30;99.90;;;;;;5026983;28;20017;-43
2022/02/15 05:32:42;;;;;;;11.63;7.68;;;7.30;99.90;;;;;;5026388;28;20545;-43
2022/02/15 05:35:09;;;;;;;12.88;7.30;;;7.30;99.90;;;;;;5025872;28;20029;-43
2022/02/15 05:37:35;;;;;;;11.75;7.47;;;7.40;99.90;;;;;;5027235;28;20136;-42
2022/02/15 05:40:02;;;;;;;10.57;7.20;;;7.40;99.90;;;;;;5026232;28;20156;-43
2022/02/15 05:42:27;;;;;;;9.90;7.03;;;7.40;99.90;;;;;;5026332;28;20028;-43
2022/02/15 05:44:53;;;;;;;9.25;7.55;;;7.40;99.90;;;;;;5026447;28;20025;-42
2022/02/15 05:47:19;;;;;;;12.57;7.30;;;7.40;99.90;;;;;;5025744;28;20040;-43
2022/02/15 05:52:29;;;;;;;11.95;7.60;;;7.40;99.90;;;;;;5026373;28;20049;-43
2022/02/15 05:54:54;;;;;;;10.88;7.82;;;7.50;99.90;;;;;;5025572;28;20041;-43
2022/02/15 05:57:20;;;;;;;10.25;8.00;;;7.40;99.90;;;;;;5025904;28;20580;-43
2022/02/15 05:59:45;;;;;;;11.85;8.57;;;7.50;99.90;;;;;;5025931;28;20025;-42
2022/02/15 06:02:11;;;;;;;14.60;9.35;;;7.50;99.90;;;;;;5025893;28;20053;-44
2022/02/15 06:04:36;;;;;;;12.65;8.80;;;7.50;99.90;;;;;;5025982;28;20475;-42
2022/02/15 06:07:04;;;;;;;13.20;9.05;;;7.50;99.90;;;;;;5026235;28;20028;-43
2022/02/15 06:09:30;;;;;;;15.05;9.93;;;7.50;99.90;;;;;;5025876;28;20034;-43
2022/02/15 06:11:55;;;;;;;13.82;9.55;;;7.50;99.90;;;;;;5026235;28;20025;-42
2022/02/15 06:14:21;;;;;;;9.50;8.35;;;7.50;99.90;;;;;;5025516;28;20492;-44
2022/02/15 06:16:46;;;;;;;12.63;9.43;;;7.50;99.90;;;;;;5025989;28;20026;-42
2022/02/15 06:19:12;;;;;;;10.98;8.88;;;7.50;99.90;;;;;;5026337;28;20594;-43
2022/02/15 06:21:37;;;;;;;13.45;9.80;;;7.50;99.90;;;;;;5024928;28;20048;-42
2022/02/15 06:24:03;;;;;;;12.65;9.13;;;7.50;99.90;;;;;;5025624;28;20045;-44
2022/02/15 06:26:28;;;;;;;14.07;9.70;;;7.50;99.90;;;;;;5025587;28;20116;-43
2022/02/15 06:28:54;;;;;;;15.13;8.93;;;7.50;99.90;;;;;;5025356;28;20665;-43
2022/02/15 06:31:20;;;;;;;15.43;8.82;;;7.50;99.90;;;;;;5024696;28;20033;-43
2022/02/15 06:33:45;;;;;;;12.50;8.60;;;7.50;99.90;;;;;;5026358;28;20025;-41
2022/02/15 06:36:11;;;;;;;11.20;8.23;;;7.50;99.90;;;;;;5024656;28;20037;-43
2022/02/15 06:38:36;;;;;;;12.50;8.80;;;7.60;99.90;;;;;;5025357;28;20043;-44
2022/02/15 06:41:02;;;;;;;13.63;9.60;;;7.60;99.90;;;;;;5026073;28;20048;-43
2022/02/15 06:43:28;;;;;;;11.57;8.70;;;7.60;99.90;;;;;;5024302;28;20022;-44
2022/02/15 06:45:53;;;;;;;11.90;9.05;;;7.50;99.90;;;;;;5025497;28;20021;-42
2022/02/15 06:48:19;;;;;;;11.88;8.57;;;7.50;99.90;;;;;;5023656;28;20037;-44
2022/02/15 06:50:44;;;;;;;15.60;9.70;;;7.60;99.90;;;;;;5024604;28;20028;-44
2022/02/15 06:53:10;;;;;;;15.15;10.13;;;7.60;99.90;;;;;;5025567;28;20029;-43
2022/02/15 06:55:36;;;;;;;15.57;9.80;;;7.60;99.90;;;;;;5025654;28;20045;-41
2022/02/15 06:58:02;;;;;;;14.38;10.07;;;7.60;99.90;;;;;;5021132;28;20052;-42
2022/02/15 07:00:27;;;;;;;15.50;10.07;;;7.60;99.90;;;;;;5021439;28;20574;-43
2022/02/15 07:02:53;;;;;;;15.32;10.07;;;7.50;99.90;;;;;;5025195;28;20776;-42
2022/02/15 07:05:18;;;;;;;14.15;9.68;;;7.60;99.90;;;;;;5023217;28;20107;-43
2022/02/15 07:07:45;;;;;;;16.65;10.52;;;7.60;99.90;;;;;;5024861;28;20084;-42
2022/02/15 07:10:12;;;;;;;16.40;10.52;;;7.60;99.90;;;;;;5023899;28;20034;-44
2022/02/15 07:12:38;;;;;;;15.68;10.05;;;7.60;99.90;;;;;;5023893;28;20100;-43
2022/02/15 07:15:04;;;;;;;14.63;9.70;;;7.60;99.90;;;;;;5024274;28;20149;-42
2022/02/15 07:17:35;;;;;;;14.70;9.50;;;7.60;99.90;;;;;;5023198;28;20430;-42
2022/02/15 07:20:00;;;;;;;14.98;9.82;;;7.60;99.90;;;;;;5013729;28;20017;-43
2022/02/15 07:22:26;;;;;;;11.77;8.25;;;7.70;99.90;;;;;;5023734;28;20030;-42
2022/02/15 07:24:51;;;;;;;14.38;8.90;;;7.70;99.90;;;;;;5025419;28;20045;-43
2022/02/15 07:27:17;;;;;;;13.93;9.40;;;7.70;99.90;;;;;;5023589;28;20072;-43
2022/02/15 07:29:42;;;;;;;13.27;8.70;;;7.70;99.90;;;;;;5025655;28;20084;-42
2022/02/15 07:32:08;;;;;;;13.77;7.80;;;7.70;99.90;;;;;;5025258;28;20029;-43
2022/02/15 07:34:34;;;;;;;16.30;8.77;;;7.70;99.90;;;;;;5025640;28;20436;-44
2022/02/15 07:37:05;;;;;;;14.20;9.05;;;7.70;99.90;;;;;;5025084;28;20059;-44
2022/02/15 07:39:31;;;;;;;16.75;9.55;;;7.70;99.90;;;;;;5024449;28;20037;-44
2022/02/15 07:41:56;;;;;;;13.48;9.02;;;7.70;99.90;;;;;;5025715;28;20026;-44
2022/02/15 07:44:22;;;;;;;12.30;8.80;;;7.70;99.90;;;;;;5025152;28;20025;-43
2022/02/15 07:46:48;;;;;;;11.32;7.93;;;7.70;99.90;;;;;;5025102;28;20028;-43
2022/02/15 07:49:14;;;;;;;17.00;8.73;;;7.70;99.90;;;;;;5024495;28;20653;-43
2022/02/15 07:51:40;;;;;;;15.82;9.27;;;7.70;99.90;;;;;;5025905;28;20104;-43
2022/02/15 07:54:05;;;;;;;14.30;8.68;;;7.70;99.90;;;;;;5023994;28;20238;-42
2022/02/15 07:56:31;;;;;;;14.93;8.57;;;7.70;99.90;;;;;;5027906;28;20018;-43
2022/02/15 07:58:56;;;;;;;13.35;8.43;;;7.70;99.90;;;;;;5029276;28;20025;-43
2022/02/15 08:01:22;;;;;;;15.30;8.32;;;7.70;99.90;;;;;;5027547;28;20026;-43
2022/02/15 08:03:47;;;;;;;13.55;8.00;;;7.60;99.90;;;;;;5028592;28;20033;-42
2022/02/15 08:06:13;;;;;;;12.55;7.90;;;7.60;99.90;;;;;;5028428;28;20056;-42
2022/02/15 08:08:38;;;;;;;14.45;8.10;;;7.60;99.90;;;;;;5027968;28;20037;-43
2022/02/15 08:11:04;;;;;;;10.75;7.43;;;7.70;99.90;;;;;;5028361;28;20049;-42
2022/02/15 08:13:37;;;;;;;13.60;7.70;;;7.70;99.90;;;;;;5026817;28;20121;-42
2022/02/15 08:16:03;;;;;;;15.48;8.27;;;7.80;99.90;;;;;;5027552;28;20037;-42
2022/02/15 08:18:29;;;;;;;13.15;8.07;;;7.80;99.90;;;;;;5027586;28;20039;-43
2022/02/15 08:20:54;;;;;;;10.15;6.68;;;7.80;99.90;;;;;;5027506;28;20567;-43
2022/02/15 08:23:20;;;;;;;15.38;8.93;;;7.90;99.90;;;;;;5027921;28;20068;-42
2022/02/15 08:25:46;;;;;;;12.63;7.00;;;7.90;99.90;;;;;;5027675;28;20473;-42
2022/02/15 08:28:13;;;;;;;11.50;7.10;;;7.90;99.90;;;;;;5027295;28;20076;-43
2022/02/15 08:30:40;;;;;;;9.93;6.53;;;8.00;99.90;;;;;;5028203;28;20026;-42
2022/02/15 08:33:05;;;;;;;12.15;5.78;;;8.00;99.90;;;;;;5028406;28;20032;-43
2022/02/15 08:35:31;;;;;;;11.10;5.88;;;7.90;99.90;;;;;;5026916;28;20037;-42
2022/02/15 08:37:56;;;;;;;13.15;6.47;;;7.90;99.90;;;;;;5027982;28;20725;-43
2022/02/15 08:40:22;;;;;;;12.05;6.20;;;7.90;99.90;;;;;;5026830;28;20033;-43
2022/02/15 08:42:48;;;;;;;12.02;6.30;;;7.90;99.90;;;;;;5027762;28;20049;-43
2022/02/15 08:45:14;;;;;;;12.07;5.93;;;8.00;99.90;;;;;;5027760;28;20028;-42
2022/02/15 08:47:40;;;;;;;9.77;5.75;;;8.10;99.90;;;;;;5027737;28;20035;-43
2022/02/15 08:50:08;;;;;;;13.23;5.03;;;8.10;99.90;;;;;;5026870;28;20029;-43
2022/02/15 08:52:36;;;;;;;13.45;4.70;;;8.20;99.90;;;;;;5027085;28;20561;-43
2022/02/15 08:55:02;;;;;;;10.93;4.30;;;8.20;99.90;;;;;;5027737;28;20037;-42
2022/02/15 08:57:28;;;;;;;9.50;4.05;;;8.30;99.90;;;;;;5026113;28;20044;-43
2022/02/15 08:59:53;;;;;;;9.60;3.83;;;8.30;99.90;;;;;;5028139;28;20018;-44
2022/02/15 09:02:20;;;;;;;10.73;4.22;;;8.30;99.90;;;;;;5026265;28;20105;-40
2022/02/15 09:04:46;;;;;;;11.13;4.30;;;8.40;99.90;;;;;;5026811;28;20042;-44
2022/02/15 09:07:11;;;;;;;11.80;4.72;;;8.30;99.90;;;;;;5026928;28;20031;-42
2022/02/15 09:09:37;;;;;;;9.63;4.60;;;8.20;99.90;;;;;;5026642;28;20045;-43
2022/02/15 09:12:03;;;;;;;7.57;3.53;;;8.10;99.90;;;;;;5027335;28;20021;-42
2022/02/15 09:14:32;;;;;;;11.63;4.10;;;8.00;99.90;;;;;;5026891;28;20043;-43
2022/02/15 09:16:59;;;;;;;5.82;3.25;;;7.90;99.90;;;;;;5026706;28;20140;-44
2022/02/15 09:19:25;;;;;;;8.32;3.28;;;8.00;99.90;;;;;;5026530;28;20041;-44
2022/02/15 09:21:51;;;;;;;8.00;3.30;;;8.00;99.90;;;;;;5025541;28;20025;-43
2022/02/15 09:24:17;;;;;;;7.60;3.42;;;8.10;99.90;;;;;;5025796;28;20481;-43
2022/02/15 09:26:43;;;;;;;7.63;2.85;;;8.20;99.90;;;;;;5026806;28;20029;-43
2022/02/15 09:29:12;;;;;;;7.18;3.15;;;8.30;99.90;;;;;;5026584;28;20037;-43
2022/02/15 09:31:38;;;;;;;7.65;2.80;;;8.50;99.90;;;;;;5026653;28;20030;-43
2022/02/15 09:34:04;;;;;;;8.82;3.95;;;8.60;99.90;;;;;;5026631;28;20061;-43
2022/02/15 09:36:30;;;;;;;8.95;3.00;;;8.80;99.90;;;;;;5027178;28;20040;-44
2022/02/15 09:38:58;;;;;;;7.80;2.92;;;8.90;99.90;;;;;;5025437;28;20022;-46
2022/02/15 09:41:24;;;;;;;7.07;2.95;;;9.00;99.90;;;;;;5026081;28;20193;-44
2022/02/15 09:43:53;;;;;;;8.98;3.33;;;9.00;99.90;;;;;;5027108;28;20469;-42
2022/02/15 09:46:19;;;;;;;7.13;2.80;;;9.00;99.90;;;;;;5026183;28;20025;-43
2022/02/15 09:48:45;;;;;;;6.00;2.55;;;9.00;99.90;;;;;;5026320;28;20036;-44
2022/02/15 09:51:12;;;;;;;12.02;3.83;;;9.10;99.90;;;;;;5026365;28;20037;-44
2022/02/15 09:53:38;;;;;;;8.25;2.78;;;9.10;99.90;;;;;;5026249;28;20025;-43
2022/02/15 09:56:05;;;;;;;13.32;3.13;;;9.10;99.90;;;;;;5026777;28;20045;-42
2022/02/15 09:58:30;;;;;;;10.25;3.20;;;9.10;99.90;;;;;;5025988;28;20024;-43
2022/02/15 10:00:56;;;;;;;6.47;2.80;;;9.20;99.90;;;;;;5025551;28;20022;-44
2022/02/15 10:03:22;;;;;;;6.93;3.33;;;9.20;99.90;;;;;;5025595;28;20163;-43
2022/02/15 10:05:49;;;;;;;6.20;2.58;;;9.20;99.90;;;;;;5026472;28;20131;-43
2022/02/15 10:08:15;;;;;;;8.77;3.25;;;9.30;99.90;;;;;;5025512;28;20033;-43
2022/02/15 10:10:41;;;;;;;7.18;2.80;;;9.30;99.90;;;;;;5015150;28;20136;-44
2022/02/15 10:13:09;;;;;;;11.95;3.15;;;9.30;99.90;;;;;;5025918;28;20030;-43
2022/02/15 10:15:37;;;;;;;7.32;2.70;;;9.30;99.90;;;;;;5025352;28;20069;-44
2022/02/15 10:18:14;;;;;;;6.38;2.63;;;9.20;99.90;;;;;;5026369;28;20064;-43
2022/02/15 10:20:43;;;;;;;7.25;2.83;;;9.20;99.90;;;;;;5022594;28;20100;-44
2022/02/15 10:23:22;;;;;;;7.82;2.72;;;9.10;99.90;;;;;;5025132;28;20508;-43
2022/02/15 10:25:48;;;;;;;6.40;2.42;;;9.00;99.90;;;;;;5022739;28;20025;-44
2022/02/15 10:28:19;;;;;;;7.13;2.10;;;9.00;99.90;;;;;;5024677;28;20461;-41
2022/02/15 10:30:47;;;;;;;5.35;1.73;;;9.00;99.90;;;;;;5025551;28;20377;-42
2022/02/15 10:33:13;;;;;;;7.57;1.58;;;9.10;99.90;;;;;;5025757;28;20481;-43
2022/02/15 10:35:40;;;;;;;5.97;1.60;;;9.10;99.90;;;;;;5025231;28;20069;-43
2022/02/15 10:38:06;;;;;;;5.43;1.55;;;9.30;99.90;;;;;;5026386;28;20129;-44
2022/02/15 10:40:34;;;;;;;5.18;1.70;;;9.40;99.90;;;;;;5025024;28;20111;-43
2022/02/15 10:42:59;;;;;;;7.78;2.08;;;9.50;99.90;;;;;;5024960;28;20100;-42
2022/02/15 10:45:28;;;;;;;5.85;2.15;;;9.50;99.90;;;;;;5024765;28;20120;-43
2022/02/15 10:47:53;;;;;;;4.90;1.80;;;9.60;99.90;;;;;;5026027;28;20662;-44
2022/02/15 10:50:19;;;;;;;4.88;1.50;;;9.60;99.90;;;;;;5024275;28;20020;-42
2022/02/15 10:52:45;;;;;;;7.93;1.80;;;9.60;99.90;;;;;;5025225;28;20049;-42
2022/02/15 10:55:14;;;;;;;5.55;2.17;;;9.60;99.90;;;;;;5024732;28;20036;-43
2022/02/15 10:57:40;;;;;;;7.40;1.92;;;9.50;99.90;;;;;;5025066;28;20021;-44
2022/02/15 11:00:10;;;;;;;6.30;1.98;;;9.60;99.90;;;;;;5025115;28;20029;-44
2022/02/15 11:02:38;;;;;;;7.85;1.77;;;9.60;99.90;;;;;;5024795;28;20030;-43
2022/02/15 11:05:06;;;;;;;8.52;2.20;;;9.70;99.90;;;;;;5025013;28;20053;-43
2022/02/15 11:07:33;;;;;;;7.60;2.30;;;9.70;99.90;;;;;;5024915;28;20392;-43
2022/02/15 11:10:10;;;;;;;9.38;2.65;;;9.70;99.90;;;;;;5024971;28;20022;-42
2022/02/15 11:12:44;;;;;;;5.85;1.65;;;9.60;99.90;;;;;;5025148;28;20072;-44
2022/02/15 11:15:11;;;;;;;5.28;1.63;;;9.50;99.90;;;;;;5025308;28;20069;-42
2022/02/15 11:17:56;;;;;;;4.13;1.70;;;9.30;99.90;;;;;;5024157;28;20130;-43
2022/02/15 11:20:27;;;;;;;7.28;2.00;;;9.30;99.90;;;;;;5024352;28;20072;-43
2022/02/15 11:22:55;;;;;;;2.85;1.50;;;9.20;99.90;;;;;;5025037;28;20022;-43
2022/02/15 11:25:34;;;;;;;3.72;1.40;;;9.20;99.90;;;;;;5023092;28;20385;-43
2022/02/15 11:28:07;;;;;;;4.88;1.40;;;9.20;99.90;;;;;;5023164;28;20025;-42
2022/02/15 11:30:46;;;;;;;4.80;1.45;;;9.40;99.90;;;;;;5025135;28;20037;-43
2022/02/15 11:33:18;;;;;;;5.32;1.33;;;9.40;99.90;;;;;;5026953;28;20443;-43
2022/02/15 11:35:54;;;;;;;5.25;1.20;;;9.40;99.90;;;;;;5028818;28;20037;-43
2022/02/15 11:38:20;;;;;;;5.45;1.40;;;9.30;99.90;;;;;;5028136;28;20033;-42
2022/02/15 11:41:03;;;;;;;4.03;1.30;;;9.20;99.90;;;;;;5029378;28;20029;-43
2022/02/15 11:43:30;;;;;;;6.75;1.50;;;9.20;99.90;;;;;;5026322;28;20120;-42
2022/02/15 11:45:56;;;;;;;8.10;1.60;;;9.10;99.90;;;;;;5028397;28;20025;-43
2022/02/15 11:48:39;;;;;;;6.68;1.60;;;9.10;99.90;;;;;;5028591;28;20022;-43
2022/02/15 11:51:18;;;;;;;;;;;9.10;99.90;;;;;;5029243;28;20079;-43
2022/02/15 11:53:48;;;;;;;3.20;1.40;;;9.20;99.90;;;;;;5028539;28;19908;-45
2022/02/15 11:56:15;;;;;;;8.43;1.42;;;9.30;99.90;;;;;;5028318;28;20033;-44
2022/02/15 11:58:49;;;;;;;6.07;1.40;;;9.40;99.90;;;;;;5028180;28;20052;-44
2022/02/15 12:01:25;;;;;;;4.25;1.48;;;9.50;99.90;;;;;;5028335;28;20068;-43
2022/02/15 12:03:51;;;;;;;5.68;1.48;;;9.60;99.90;;;;;;5028196;28;20032;-42
2022/02/15 12:06:22;;;;;;;4.50;1.40;;;9.70;99.90;;;;;;5027248;28;20056;-42
2022/02/15 12:08:58;;;;;;;5.43;1.35;;;9.80;99.90;;;;;;5028786;28;20037;-43
2022/02/15 12:11:40;;;;;;;3.70;1.35;;;9.80;99.90;;;;;;5028015;28;20083;-44
2022/02/15 12:14:10;;;;;;;5.00;1.50;;;9.70;99.90;;;;;;5027692;28;20043;-43
2022/02/15 12:16:49;;;;;;;7.68;1.80;;;9.70;99.90;;;;;;5028348;28;20673;-42
2022/02/15 12:19:31;;;;;;;7.18;2.58;;;9.70;99.90;;;;;;5027627;28;20034;-42
2022/02/15 12:22:02;;;;;;;4.70;1.75;;;9.70;99.90;;;;;;5028281;28;20397;-43
2022/02/15 12:24:29;;;;;;;4.43;1.80;;;9.80;99.90;;;;;;5027538;28;20041;-44
2022/02/15 12:26:57;;;;;;;6.22;1.85;;;9.70;99.90;;;;;;5028430;28;20029;-43
2022/02/15 12:29:23;;;;;;;5.07;2.25;;;9.80;99.90;;;;;;5027043;28;20385;-42
2022/02/15 12:32:00;;;;;;;6.38;2.20;;;9.90;99.90;;;;;;5027701;28;20036;-43
2022/02/15 12:34:27;;;;;;;4.22;1.98;;;10.00;99.90;;;;;;5026194;28;20072;-43
2022/02/15 12:36:53;;;;;;;6.57;2.70;;;10.00;99.90;;;;;;5027050;28;20838;-42
2022/02/15 12:39:29;;;;;;;4.60;1.92;;;10.10;99.90;;;;;;5026982;28;20033;-43
2022/02/15 12:41:55;;;;;;;7.10;2.45;;;10.10;99.90;;;;;;5025696;28;20764;-42
2022/02/15 12:44:20;;;;;;;4.28;2.10;;;10.10;99.90;;;;;;5026821;28;20061;-43
2022/02/15 12:46:46;;;;;;;6.72;2.10;;;10.10;99.90;;;;;;5028242;28;20041;-43
2022/02/15 12:49:12;;;;;;;7.15;2.15;;;10.10;99.90;;;;;;5026937;28;20033;-43
2022/02/15 12:51:38;;;;;;;4.82;1.80;;;10.10;99.80;;;;;;5028108;28;20037;-43
2022/02/15 12:54:05;;;;;;;4.65;1.80;;;10.20;99.90;;;;;;5027415;28;20055;-43
2022/02/15 12:56:33;;;;;;;4.20;1.90;;;10.20;99.70;;;;;;5026406;28;20072;-44
2022/02/15 12:59:04;;;;;;;4.97;1.70;;;10.20;99.80;;;;;;5027510;28;20029;-43